createdAt,value
2019-03-31T00:01:31.006Z,8.10
2019-03-31T00:04:00.999Z,8.10
2019-03-31T00:06:30.930Z,8.10
2019-03-31T00:09:00.863Z,8.00
2019-03-31T00:11:30.799Z,7.90
2019-03-31T00:14:00.779Z,7.80
2019-03-31T00:16:30.801Z,7.70
2019-03-31T00:19:00.881Z,7.80
2019-03-31T00:21:30.855Z,7.80
2019-03-31T00:24:00.851Z,7.80
2019-03-31T00:26:30.839Z,7.80
2019-03-31T00:29:00.807Z,7.80
2019-03-31T00:31:30.710Z,7.90
2019-03-31T00:34:00.677Z,7.80
2019-03-31T00:36:30.647Z,7.80
2019-03-31T00:39:00.613Z,7.80
2019-03-31T00:41:30.551Z,7.90
2019-03-31T00:44:00.465Z,7.90
2019-03-31T00:46:30.520Z,7.90
2019-03-31T00:49:00.525Z,8.00
2019-03-31T00:51:30.486Z,8.00
2019-03-31T00:54:00.368Z,8.00
2019-03-31T00:56:31.835Z,8.10
2019-03-31T00:59:02.163Z,7.90
2019-03-31T01:01:40.162Z,7.90
2019-03-31T01:04:10.927Z,7.90
2019-03-31T01:06:40.807Z,7.90
2019-03-31T01:09:30.101Z,7.90
2019-03-31T01:12:00.366Z,7.90
2019-03-31T01:14:30.496Z,7.90
2019-03-31T01:17:02.649Z,7.90
2019-03-31T01:19:32.814Z,7.90
2019-03-31T01:22:03.175Z,8.00
2019-03-31T01:24:33.199Z,8.00
2019-03-31T01:27:03.988Z,8.00
2019-03-31T01:29:33.997Z,8.00
2019-03-31T01:32:04.707Z,8.00
2019-03-31T01:34:34.577Z,8.00
2019-03-31T01:37:05.308Z,8.00
2019-03-31T01:39:35.803Z,8.10
2019-03-31T01:42:06.361Z,8.00
2019-03-31T01:44:55.200Z,8.00
2019-03-31T01:47:25.231Z,8.10
2019-03-31T01:49:55.199Z,8.10
2019-03-31T01:52:25.184Z,8.00
2019-03-31T01:54:55.165Z,8.00
2019-03-31T01:57:25.067Z,8.00
2019-03-31T01:59:55.051Z,8.00
2019-03-31T02:02:28.434Z,8.00
2019-03-31T02:04:58.625Z,8.00
2019-03-31T02:07:29.233Z,8.00
2019-03-31T02:09:59.794Z,8.10
2019-03-31T02:12:29.699Z,8.10
2019-03-31T02:14:59.664Z,8.00
2019-03-31T02:17:29.963Z,8.10
2019-03-31T02:19:59.888Z,8.00
2019-03-31T02:22:29.734Z,8.10
2019-03-31T02:24:59.694Z,8.10
2019-03-31T02:27:29.581Z,8.10
2019-03-31T02:29:59.529Z,8.10
2019-03-31T02:32:29.817Z,8.10
2019-03-31T02:34:59.910Z,8.10
2019-03-31T02:37:29.899Z,8.10
2019-03-31T02:39:59.891Z,8.10
2019-03-31T02:42:30.232Z,8.00
2019-03-31T02:45:00.787Z,8.00
2019-03-31T02:47:30.882Z,8.00
2019-03-31T02:50:00.877Z,8.00
2019-03-31T02:52:31.204Z,8.10
2019-03-31T02:55:01.523Z,8.00
2019-03-31T02:57:32.476Z,8.10
2019-03-31T03:00:03.325Z,8.10
2019-03-31T03:02:41.919Z,8.10
2019-03-31T03:05:18.764Z,8.10
2019-03-31T03:07:40.804Z,8.10
2019-03-31T03:10:10.738Z,8.10
2019-03-31T03:12:45.499Z,8.10
2019-03-31T03:15:24.584Z,8.10
2019-03-31T03:17:54.488Z,8.00
2019-03-31T03:20:24.428Z,8.00
2019-03-31T03:22:54.504Z,8.00
2019-03-31T03:25:24.460Z,8.00
2019-03-31T03:27:54.403Z,7.90
2019-03-31T03:30:24.539Z,7.90
2019-03-31T03:33:13.233Z,8.00
2019-03-31T03:35:26.658Z,7.90
2019-03-31T03:37:56.597Z,8.00
2019-03-31T03:40:26.560Z,7.90
2019-03-31T03:42:56.863Z,7.90
2019-03-31T03:45:26.777Z,7.90
2019-03-31T03:47:56.733Z,7.90
2019-03-31T03:50:27.203Z,7.90
2019-03-31T03:52:57.384Z,7.90
2019-03-31T03:55:27.351Z,7.90
2019-03-31T03:57:57.251Z,7.80
2019-03-31T04:00:27.115Z,7.80
2019-03-31T04:02:57.112Z,7.70
2019-03-31T04:05:27.052Z,7.70
2019-03-31T04:07:57.033Z,7.60
2019-03-31T04:11:06.555Z,7.60
2019-03-31T04:13:36.472Z,7.50
2019-03-31T04:16:06.431Z,7.60
2019-03-31T04:18:36.409Z,7.60
2019-03-31T04:21:06.494Z,7.60
2019-03-31T04:23:36.420Z,7.60
2019-03-31T04:26:06.797Z,7.50
2019-03-31T04:28:36.725Z,7.50
2019-03-31T04:31:06.664Z,7.50
2019-03-31T04:33:50.684Z,7.50
2019-03-31T04:36:08.897Z,7.60
2019-03-31T04:38:38.854Z,7.60
2019-03-31T04:41:08.795Z,7.60
2019-03-31T04:43:38.768Z,7.60
2019-03-31T04:46:08.739Z,7.60
2019-03-31T04:48:39.147Z,7.60
2019-03-31T04:51:09.381Z,7.50
2019-03-31T04:53:39.342Z,7.40
2019-03-31T04:56:09.456Z,7.40
2019-03-31T04:58:39.401Z,7.50
2019-03-31T05:01:09.315Z,7.50
2019-03-31T05:03:39.306Z,7.50
2019-03-31T05:06:10.045Z,7.50
2019-03-31T05:08:40.005Z,7.40
2019-03-31T05:11:09.981Z,7.50
2019-03-31T05:13:40.207Z,7.50
2019-03-31T05:16:10.264Z,7.50
2019-03-31T05:18:40.246Z,7.50
2019-03-31T05:21:10.212Z,7.50
2019-03-31T05:23:40.204Z,7.50
2019-03-31T05:26:10.146Z,7.50
2019-03-31T05:28:40.018Z,7.50
2019-03-31T05:31:09.903Z,7.40
2019-03-31T05:33:40.013Z,7.50
2019-03-31T05:36:10.469Z,7.50
2019-03-31T05:38:40.432Z,7.50
2019-03-31T05:41:10.344Z,7.40
2019-03-31T05:43:40.318Z,7.40
2019-03-31T05:46:10.298Z,7.40
2019-03-31T05:48:40.237Z,7.50
2019-03-31T05:51:10.316Z,7.50
2019-03-31T05:53:40.224Z,7.40
2019-03-31T05:56:11.801Z,7.40
2019-03-31T05:58:41.722Z,7.30
2019-03-31T06:01:11.619Z,7.30
2019-03-31T06:03:41.554Z,7.30
2019-03-31T06:06:11.969Z,7.40
2019-03-31T06:08:41.916Z,7.40
2019-03-31T06:11:11.881Z,7.40
2019-03-31T06:13:41.821Z,7.50
2019-03-31T06:16:11.682Z,7.40
2019-03-31T06:18:42.127Z,7.40
2019-03-31T06:21:11.956Z,7.50
2019-03-31T06:23:41.859Z,7.50
2019-03-31T06:26:12.098Z,7.50
2019-03-31T06:28:42.276Z,7.40
2019-03-31T06:31:12.255Z,7.50
2019-03-31T06:33:42.636Z,7.50
2019-03-31T06:36:12.646Z,7.50
2019-03-31T06:38:42.576Z,7.50
2019-03-31T06:41:12.500Z,7.50
2019-03-31T06:43:42.508Z,7.50
2019-03-31T06:46:12.481Z,7.50
2019-03-31T06:48:42.490Z,7.50
2019-03-31T06:51:12.453Z,7.50
2019-03-31T06:53:43.100Z,7.60
2019-03-31T06:56:13.088Z,7.70
2019-03-31T06:58:43.684Z,7.70
2019-03-31T07:01:13.544Z,7.70
2019-03-31T07:03:43.586Z,7.70
2019-03-31T07:06:14.004Z,7.70
2019-03-31T07:08:44.050Z,7.80
2019-03-31T07:11:32.847Z,7.80
2019-03-31T07:14:03.000Z,7.80
2019-03-31T07:16:32.968Z,7.80
2019-03-31T07:19:03.355Z,7.80
2019-03-31T07:21:33.336Z,7.90
2019-03-31T07:24:03.222Z,7.90
2019-03-31T07:26:33.738Z,7.80
2019-03-31T07:29:04.688Z,7.80
2019-03-31T07:31:35.052Z,7.80
2019-03-31T07:34:05.186Z,7.80
2019-03-31T07:36:35.102Z,7.80
2019-03-31T07:39:06.919Z,7.90
2019-03-31T07:41:37.241Z,8.00
2019-03-31T07:44:07.262Z,7.90
2019-03-31T07:46:37.249Z,8.00
2019-03-31T07:49:07.242Z,8.00
2019-03-31T07:51:37.637Z,8.00
2019-03-31T07:54:09.158Z,8.10
2019-03-31T07:56:39.162Z,8.10
2019-03-31T07:59:09.036Z,8.20
2019-03-31T08:01:39.086Z,8.20
2019-03-31T08:04:09.063Z,8.20
2019-03-31T08:06:39.022Z,8.30
2019-03-31T08:09:09.283Z,8.30
2019-03-31T08:11:39.173Z,8.40
2019-03-31T08:14:09.181Z,8.50
2019-03-31T08:16:39.152Z,8.50
2019-03-31T08:19:09.108Z,8.50
2019-03-31T08:21:39.361Z,8.60
2019-03-31T08:24:09.292Z,8.70
2019-03-31T08:26:39.393Z,8.80
2019-03-31T08:29:09.492Z,8.80
2019-03-31T08:31:39.466Z,8.80
2019-03-31T08:34:09.926Z,8.80
2019-03-31T08:36:39.858Z,8.70
2019-03-31T08:39:09.980Z,8.60
2019-03-31T08:41:40.114Z,8.60
2019-03-31T08:44:10.057Z,8.70
2019-03-31T08:46:40.027Z,8.80
2019-03-31T08:49:10.756Z,9.00
2019-03-31T08:51:40.722Z,8.90
2019-03-31T08:54:10.654Z,8.90
2019-03-31T08:56:40.638Z,8.80
2019-03-31T08:59:10.584Z,8.80
2019-03-31T09:01:40.495Z,8.80
2019-03-31T09:04:10.754Z,8.90
2019-03-31T09:06:40.735Z,8.80
2019-03-31T09:09:10.678Z,8.80
2019-03-31T09:11:40.682Z,8.80
2019-03-31T09:14:10.645Z,8.70
2019-03-31T09:16:40.652Z,8.70
2019-03-31T09:19:10.546Z,8.70
2019-03-31T09:21:40.565Z,8.70
2019-03-31T09:24:10.575Z,8.80
2019-03-31T09:26:40.498Z,8.80
2019-03-31T09:29:10.862Z,8.80
2019-03-31T09:31:40.792Z,8.80
2019-03-31T09:34:10.710Z,8.80
2019-03-31T09:36:40.640Z,8.80
2019-03-31T09:39:10.604Z,8.90
2019-03-31T09:41:40.573Z,8.90
2019-03-31T09:44:10.548Z,9.00
2019-03-31T09:46:40.548Z,9.10
2019-03-31T09:49:10.561Z,9.10
2019-03-31T09:51:40.448Z,9.10
2019-03-31T09:54:10.412Z,9.00
2019-03-31T09:56:40.452Z,9.10
2019-03-31T09:59:10.809Z,9.10
2019-03-31T10:01:40.890Z,9.20
2019-03-31T10:04:10.864Z,9.30
2019-03-31T10:06:40.773Z,9.30
2019-03-31T10:09:10.754Z,9.30
2019-03-31T10:11:40.985Z,9.20
2019-03-31T10:14:11.361Z,9.20
2019-03-31T10:16:41.848Z,9.30
2019-03-31T10:19:11.846Z,9.30
2019-03-31T10:21:42.130Z,9.30
2019-03-31T10:24:12.199Z,9.20
2019-03-31T10:26:42.244Z,9.20
2019-03-31T10:29:12.144Z,9.30
2019-03-31T10:31:42.456Z,9.30
2019-03-31T10:34:12.423Z,9.40
2019-03-31T10:36:44.799Z,9.60
2019-03-31T10:39:14.244Z,9.70
2019-03-31T10:41:44.305Z,9.60
2019-03-31T10:44:14.191Z,9.50
2019-03-31T10:46:44.129Z,9.40
2019-03-31T10:49:14.137Z,9.40
2019-03-31T10:51:44.044Z,9.50
2019-03-31T10:54:14.457Z,9.60
2019-03-31T10:56:44.399Z,9.80
2019-03-31T10:59:14.385Z,9.90
2019-03-31T11:01:44.346Z,9.90
2019-03-31T11:04:14.390Z,10.10
2019-03-31T11:06:57.971Z,10.10
2019-03-31T11:09:16.129Z,10.10
2019-03-31T11:11:46.073Z,10.00
2019-03-31T11:14:16.155Z,10.00
2019-03-31T11:16:46.193Z,10.20
2019-03-31T11:19:16.217Z,10.10
2019-03-31T11:21:55.255Z,10.20
2019-03-31T11:24:25.401Z,10.30
2019-03-31T11:26:55.479Z,10.40
2019-03-31T11:29:25.443Z,10.60
2019-03-31T11:31:55.381Z,10.60
2019-03-31T11:34:25.460Z,10.50
2019-03-31T11:36:55.912Z,10.40
2019-03-31T11:39:25.839Z,10.30
2019-03-31T11:41:58.831Z,10.30
2019-03-31T11:44:28.874Z,10.50
2019-03-31T11:46:58.827Z,10.60
2019-03-31T11:49:28.851Z,10.60
2019-03-31T11:51:58.815Z,10.60
2019-03-31T11:54:29.087Z,10.60
2019-03-31T11:56:59.455Z,10.50
2019-03-31T11:59:30.175Z,10.60
2019-03-31T12:02:00.163Z,10.40
2019-03-31T12:04:30.478Z,10.50
2019-03-31T12:07:00.457Z,10.50
2019-03-31T12:09:30.823Z,10.50
2019-03-31T12:12:01.300Z,10.40
2019-03-31T12:14:31.256Z,10.50
2019-03-31T12:17:01.288Z,10.60
2019-03-31T12:19:31.279Z,10.60
2019-03-31T12:22:01.302Z,10.80
2019-03-31T12:24:31.231Z,10.70
2019-03-31T12:27:01.257Z,10.70
2019-03-31T12:29:31.189Z,10.60
2019-03-31T12:32:01.495Z,10.80
2019-03-31T12:34:31.361Z,11.10
2019-03-31T12:37:01.265Z,11.30
2019-03-31T12:39:31.273Z,11.40
2019-03-31T12:42:01.260Z,11.60
2019-03-31T12:44:31.225Z,11.70
2019-03-31T12:47:01.099Z,11.90
2019-03-31T12:49:31.055Z,12.30
2019-03-31T12:52:00.973Z,12.50
2019-03-31T12:54:30.895Z,12.60
2019-03-31T12:57:00.871Z,12.80
2019-03-31T12:59:30.792Z,13.20
2019-03-31T13:02:00.748Z,12.80
2019-03-31T13:04:31.057Z,13.10
2019-03-31T13:07:01.055Z,13.40
2019-03-31T13:09:31.013Z,13.30
2019-03-31T13:12:00.931Z,13.10
2019-03-31T13:14:30.887Z,13.30
2019-03-31T13:17:01.604Z,13.10
2019-03-31T13:19:31.798Z,13.20
2019-03-31T13:22:01.788Z,13.80
2019-03-31T13:24:32.104Z,14.30
2019-03-31T13:27:02.057Z,14.10
2019-03-31T13:29:32.006Z,13.60
2019-03-31T13:32:01.957Z,13.30
2019-03-31T13:34:31.919Z,13.70
2019-03-31T13:37:01.948Z,14.40
2019-03-31T13:39:31.948Z,14.60
2019-03-31T13:42:01.977Z,15.40
2019-03-31T13:44:31.915Z,15.60
2019-03-31T13:47:01.913Z,15.70
2019-03-31T13:49:31.853Z,16.00
2019-03-31T13:52:01.773Z,16.80
2019-03-31T13:54:31.731Z,17.10
2019-03-31T13:57:01.786Z,17.50
2019-03-31T13:59:31.714Z,17.40
2019-03-31T14:02:01.671Z,17.20
2019-03-31T14:04:31.685Z,17.40
2019-03-31T14:07:04.436Z,18.00
2019-03-31T14:09:33.925Z,18.60
2019-03-31T14:12:04.191Z,18.30
2019-03-31T14:14:34.193Z,18.20
2019-03-31T14:17:04.213Z,18.30
2019-03-31T14:19:34.887Z,18.40
2019-03-31T14:22:04.865Z,18.20
2019-03-31T14:24:34.941Z,18.20
2019-03-31T14:27:05.393Z,17.60
2019-03-31T14:29:35.536Z,17.50
2019-03-31T14:32:06.108Z,17.50
2019-03-31T14:34:36.159Z,17.70
2019-03-31T14:37:06.322Z,17.80
2019-03-31T14:39:36.607Z,17.90
2019-03-31T14:42:06.841Z,18.50
2019-03-31T14:44:36.820Z,18.20
2019-03-31T14:47:06.849Z,18.40
2019-03-31T14:49:36.808Z,18.30
2019-03-31T14:52:06.815Z,17.80
2019-03-31T14:54:36.695Z,17.80
2019-03-31T14:57:06.567Z,18.00
2019-03-31T14:59:36.941Z,18.00
2019-03-31T15:02:06.919Z,17.80
2019-03-31T15:04:36.925Z,18.20
2019-03-31T15:07:06.889Z,18.20
2019-03-31T15:09:36.824Z,18.40
2019-03-31T15:12:06.756Z,18.20
2019-03-31T15:14:36.725Z,18.20
2019-03-31T15:17:06.726Z,18.00
2019-03-31T15:19:36.702Z,18.10
2019-03-31T15:22:06.667Z,18.00
2019-03-31T15:24:36.802Z,17.70
2019-03-31T15:27:06.794Z,17.70
2019-03-31T15:29:37.174Z,17.40
2019-03-31T15:32:07.097Z,17.40
2019-03-31T15:34:37.126Z,17.40
2019-03-31T15:37:07.119Z,17.50
2019-03-31T15:39:37.095Z,17.60
2019-03-31T15:42:06.961Z,17.50
2019-03-31T15:44:36.905Z,17.50
2019-03-31T15:47:07.515Z,17.20
2019-03-31T15:49:37.821Z,17.10
2019-03-31T15:52:08.922Z,17.10
2019-03-31T15:54:39.165Z,17.10
2019-03-31T15:57:09.565Z,17.00
2019-03-31T15:59:39.543Z,16.70
2019-03-31T16:02:09.504Z,16.40
2019-03-31T16:04:39.539Z,15.80
2019-03-31T16:07:28.313Z,15.80
2019-03-31T16:09:57.763Z,15.70
2019-03-31T16:12:27.579Z,15.40
2019-03-31T16:14:57.152Z,15.40
2019-03-31T16:17:26.546Z,15.40
2019-03-31T16:19:56.047Z,15.00
2019-03-31T16:22:25.583Z,15.00
2019-03-31T16:24:56.841Z,14.80
2019-03-31T16:27:26.220Z,14.30
2019-03-31T16:29:55.665Z,13.80
2019-03-31T16:32:25.115Z,13.60
2019-03-31T16:34:54.579Z,13.90
2019-03-31T16:37:24.052Z,13.90
2019-03-31T16:39:53.498Z,13.80
2019-03-31T16:42:23.239Z,13.70
2019-03-31T16:44:58.314Z,13.70
2019-03-31T16:47:24.790Z,13.50
2019-03-31T16:49:54.119Z,13.30
2019-03-31T16:52:23.603Z,13.20
2019-03-31T16:54:53.369Z,13.20
2019-03-31T16:57:22.708Z,12.80
2019-03-31T16:59:52.091Z,12.80
2019-03-31T17:02:21.507Z,12.90
2019-03-31T17:04:50.893Z,13.00
2019-03-31T17:07:20.577Z,12.90
2019-03-31T17:09:51.725Z,12.60
2019-03-31T17:12:21.481Z,12.40
2019-03-31T17:14:50.876Z,12.30
2019-03-31T17:17:20.311Z,12.20
2019-03-31T17:19:49.697Z,11.80
2019-03-31T17:22:19.131Z,11.70
2019-03-31T17:24:49.025Z,11.50
2019-03-31T17:27:18.634Z,11.40
2019-03-31T17:29:48.097Z,11.20
2019-03-31T17:32:17.481Z,11.10
2019-03-31T17:34:46.912Z,10.90
2019-03-31T17:37:16.311Z,10.70
2019-03-31T17:39:45.771Z,10.50
2019-03-31T17:42:15.225Z,10.30
2019-03-31T17:44:44.548Z,10.30
2019-03-31T17:47:14.046Z,10.20
2019-03-31T17:49:43.498Z,10.20
2019-03-31T17:52:13.011Z,10.20
2019-03-31T17:54:42.471Z,10.00
2019-03-31T17:57:11.995Z,9.90
2019-03-31T17:59:41.739Z,9.70
2019-03-31T18:02:11.153Z,9.60
2019-03-31T18:04:40.475Z,9.40
2019-03-31T18:07:09.896Z,9.20
2019-03-31T18:09:39.651Z,9.10
2019-03-31T18:12:09.129Z,9.20
2019-03-31T18:14:38.469Z,9.10
2019-03-31T18:17:08.221Z,9.00
2019-03-31T18:19:37.548Z,8.90
2019-03-31T18:22:16.252Z,8.70
2019-03-31T18:24:38.099Z,8.70
2019-03-31T18:27:07.782Z,8.70
2019-03-31T18:29:37.226Z,8.70
2019-03-31T18:32:06.651Z,8.60
2019-03-31T18:34:36.532Z,8.50
2019-03-31T18:37:06.323Z,8.50
2019-03-31T18:39:35.725Z,8.40
2019-03-31T18:42:05.302Z,8.30
2019-03-31T18:44:35.393Z,8.30
2019-03-31T18:47:04.804Z,8.10
2019-03-31T18:49:34.250Z,8.00
2019-03-31T18:52:03.642Z,8.00
2019-03-31T18:54:55.424Z,8.00
2019-03-31T18:57:35.147Z,7.90
2019-03-31T19:00:16.278Z,7.80
2019-03-31T19:03:03.651Z,7.70
2019-03-31T19:06:07.319Z,7.70
2019-03-31T19:08:48.762Z,7.60
2019-03-31T19:11:49.284Z,7.60
2019-03-31T19:14:32.242Z,7.60
2019-03-31T19:17:39.216Z,7.60
2019-03-31T19:20:36.684Z,7.50
2019-03-31T19:23:23.779Z,7.50
2019-03-31T19:26:13.266Z,7.50
2019-03-31T19:29:17.010Z,7.40
2019-03-31T19:31:56.860Z,7.30
2019-03-31T19:34:50.956Z,7.40
2019-03-31T19:37:48.278Z,7.30
2019-03-31T19:40:31.365Z,7.20
2019-03-31T19:43:19.078Z,7.20
2019-03-31T19:46:16.106Z,7.10
2019-03-31T19:49:16.708Z,7.10
2019-03-31T19:52:06.478Z,7.00
2019-03-31T19:54:57.086Z,7.00
2019-03-31T19:57:48.429Z,6.90
2019-03-31T20:00:48.925Z,6.90
2019-03-31T20:03:41.116Z,6.80
2019-03-31T20:06:28.024Z,6.80
2019-03-31T20:09:02.737Z,6.60
2019-03-31T20:11:40.011Z,6.60
2019-03-31T20:14:21.356Z,6.70
2019-03-31T20:17:06.432Z,6.80
2019-03-31T20:20:13.408Z,6.60
2019-03-31T20:22:55.362Z,6.50
2019-03-31T20:26:01.793Z,6.50
2019-03-31T20:28:48.473Z,6.60
2019-03-31T20:31:36.907Z,6.60
2019-03-31T20:34:40.410Z,6.40
2019-03-31T20:37:26.760Z,6.50
2019-03-31T20:40:33.353Z,6.50
2019-03-31T20:43:27.104Z,6.40
2019-03-31T20:45:56.564Z,6.30
2019-03-31T20:48:26.007Z,6.20
2019-03-31T20:50:55.326Z,6.20
2019-03-31T20:53:25.098Z,6.20
2019-03-31T20:55:54.482Z,6.10
2019-03-31T20:58:23.922Z,6.10
2019-03-31T21:00:53.346Z,6.00
2019-03-31T21:03:23.116Z,6.00
2019-03-31T21:05:52.755Z,6.00
2019-03-31T21:08:22.175Z,6.00
2019-03-31T21:10:51.975Z,6.00
2019-03-31T21:13:21.339Z,6.00
2019-03-31T21:15:50.771Z,5.90
2019-03-31T21:18:20.157Z,6.00
2019-03-31T21:20:49.571Z,5.90
2019-03-31T21:23:19.028Z,5.90
2019-03-31T21:25:48.432Z,5.80
2019-03-31T21:28:17.840Z,5.80
2019-03-31T21:30:47.219Z,5.80
2019-03-31T21:33:16.681Z,5.80
2019-03-31T21:35:48.567Z,5.70
2019-03-31T21:38:17.158Z,5.70
2019-03-31T21:40:46.539Z,5.70
2019-03-31T21:43:15.989Z,5.70
2019-03-31T21:45:46.672Z,5.60
2019-03-31T21:48:15.992Z,5.60
2019-03-31T21:50:45.372Z,5.60
2019-03-31T21:53:14.893Z,5.60
2019-03-31T21:55:44.252Z,5.50
2019-03-31T21:58:14.047Z,5.50
2019-03-31T22:00:54.005Z,5.50
2019-03-31T22:03:23.461Z,5.50
2019-03-31T22:05:53.213Z,5.40
2019-03-31T22:08:22.917Z,5.40
2019-03-31T22:10:52.349Z,5.30
2019-03-31T22:13:22.093Z,5.30
2019-03-31T22:16:10.497Z,5.20
2019-03-31T22:18:39.997Z,5.20
2019-03-31T22:21:09.425Z,5.20
2019-03-31T22:23:38.735Z,5.20
2019-03-31T22:26:08.528Z,5.20
2019-03-31T22:28:38.021Z,5.20
2019-03-31T22:31:07.690Z,5.20
2019-03-31T22:33:37.127Z,5.20
2019-03-31T22:36:21.623Z,5.10
2019-03-31T22:38:52.004Z,5.10
2019-03-31T22:41:21.800Z,5.10
2019-03-31T22:43:51.157Z,5.10
2019-03-31T22:46:20.531Z,5.00
2019-03-31T22:48:49.908Z,5.00
2019-03-31T22:51:28.088Z,4.90
2019-03-31T22:53:57.507Z,4.80
2019-03-31T22:56:26.874Z,4.90
2019-03-31T22:58:56.289Z,4.80
2019-03-31T23:01:25.739Z,4.80
2019-03-31T23:03:55.112Z,4.80
2019-03-31T23:06:24.509Z,4.80
2019-03-31T23:08:54.193Z,4.80
2019-03-31T23:11:23.645Z,4.70
2019-03-31T23:13:53.485Z,4.70
2019-03-31T23:16:22.907Z,4.60
2019-03-31T23:18:52.674Z,4.60
2019-03-31T23:21:22.099Z,4.60
2019-03-31T23:23:51.613Z,4.40
2019-03-31T23:26:21.034Z,4.40
2019-03-31T23:28:50.339Z,4.40
2019-03-31T23:31:19.693Z,4.40
2019-03-31T23:33:49.129Z,4.30
2019-03-31T23:36:18.619Z,4.40
2019-03-31T23:38:48.042Z,4.40
2019-03-31T23:41:17.525Z,4.50
2019-03-31T23:43:46.877Z,4.50
2019-03-31T23:46:16.272Z,4.50
2019-03-31T23:48:45.685Z,4.50
2019-03-31T23:51:15.091Z,4.50
2019-03-31T23:53:44.504Z,4.40
2019-03-31T23:56:13.917Z,4.50
2019-03-31T23:58:43.305Z,4.40
